createdAt,value
2023-04-30T00:01:49.969Z,79.66
2023-04-30T00:04:18.448Z,79.47
2023-04-30T00:06:46.728Z,79.21
2023-04-30T00:09:14.972Z,78.98
2023-04-30T00:11:43.143Z,78.83
2023-04-30T00:14:11.521Z,78.82
2023-04-30T00:16:39.727Z,78.78
2023-04-30T00:19:08.677Z,78.77
2023-04-30T00:21:36.862Z,78.65
2023-04-30T00:24:06.034Z,78.88
2023-04-30T00:26:34.125Z,79.06
2023-04-30T00:29:02.913Z,78.97
2023-04-30T00:31:31.153Z,78.91
2023-04-30T00:33:59.566Z,78.92
2023-04-30T00:36:27.743Z,78.92
2023-04-30T00:38:55.910Z,78.99
2023-04-30T00:41:24.696Z,78.83
2023-04-30T00:43:52.763Z,78.96
2023-04-30T00:46:21.034Z,78.69
2023-04-30T00:48:49.414Z,78.82
2023-04-30T00:51:17.892Z,78.88
2023-04-30T00:53:46.378Z,78.74
2023-04-30T00:56:16.670Z,78.91
2023-04-30T00:58:45.890Z,79.00
2023-04-30T01:01:14.108Z,78.82
2023-04-30T01:03:42.893Z,79.35
2023-04-30T01:06:11.047Z,79.45
2023-04-30T01:08:39.325Z,79.62
2023-04-30T01:11:26.923Z,79.51
2023-04-30T01:14:11.994Z,79.78
2023-04-30T01:17:06.476Z,79.98
2023-04-30T01:19:45.962Z,80.11
2023-04-30T01:22:31.190Z,80.24
2023-04-30T01:25:15.949Z,80.25
2023-04-30T01:28:06.757Z,80.49
2023-04-30T01:30:36.152Z,80.28
2023-04-30T01:33:04.634Z,80.20
2023-04-30T01:35:40.281Z,80.33
2023-04-30T01:38:20.226Z,80.69
2023-04-30T01:40:53.736Z,81.47
2023-04-30T01:43:37.074Z,81.50
2023-04-30T01:46:23.179Z,81.62
2023-04-30T01:49:16.615Z,81.69
2023-04-30T01:51:47.370Z,81.65
2023-04-30T01:54:37.019Z,81.61
2023-04-30T01:57:24.649Z,82.20
2023-04-30T01:59:53.718Z,82.45
2023-04-30T02:02:22.135Z,82.49
2023-04-30T02:04:50.701Z,82.50
2023-04-30T02:07:29.315Z,82.50
2023-04-30T02:09:57.493Z,82.52
2023-04-30T02:12:25.770Z,82.73
2023-04-30T02:14:53.936Z,82.54
2023-04-30T02:17:22.112Z,82.59
2023-04-30T02:19:50.896Z,82.56
2023-04-30T02:22:19.062Z,82.92
2023-04-30T02:24:47.236Z,82.95
2023-04-30T02:27:15.305Z,83.00
2023-04-30T02:29:43.481Z,83.22
2023-04-30T02:32:11.858Z,83.21
2023-04-30T02:34:39.923Z,83.17
2023-04-30T02:37:08.812Z,82.79
2023-04-30T02:39:37.150Z,83.11
2023-04-30T02:42:07.001Z,82.94
2023-04-30T02:44:35.490Z,82.94
2023-04-30T02:47:03.754Z,82.66
2023-04-30T02:49:32.753Z,82.62
2023-04-30T02:52:01.329Z,82.72
2023-04-30T02:54:29.499Z,82.77
2023-04-30T02:56:57.668Z,82.60
2023-04-30T02:59:26.152Z,82.71
2023-04-30T03:01:54.323Z,82.83
2023-04-30T03:04:23.028Z,82.65
2023-04-30T03:06:51.208Z,82.74
2023-04-30T03:09:19.364Z,82.74
2023-04-30T03:11:47.535Z,82.53
2023-04-30T03:14:15.797Z,82.61
2023-04-30T03:16:44.017Z,82.34
2023-04-30T03:19:13.575Z,82.44
2023-04-30T03:21:42.060Z,82.45
2023-04-30T03:24:10.237Z,82.41
2023-04-30T03:26:38.412Z,82.15
2023-04-30T03:29:06.579Z,82.27
2023-04-30T03:31:34.721Z,82.18
2023-04-30T03:34:02.922Z,82.58
2023-04-30T03:36:31.504Z,82.74
2023-04-30T03:38:59.674Z,82.58
2023-04-30T03:41:27.954Z,82.63
2023-04-30T03:43:56.140Z,82.53
2023-04-30T03:46:24.454Z,82.50
2023-04-30T03:48:52.671Z,82.65
2023-04-30T03:51:21.971Z,82.56
2023-04-30T03:53:50.249Z,82.57
2023-04-30T03:56:18.427Z,82.63
2023-04-30T03:58:46.592Z,82.60
2023-04-30T04:01:14.765Z,82.68
2023-04-30T04:03:43.212Z,82.72
2023-04-30T04:06:11.587Z,82.66
2023-04-30T04:08:43.413Z,82.63
2023-04-30T04:11:12.501Z,82.68
2023-04-30T04:13:41.258Z,82.83
2023-04-30T04:16:10.018Z,82.79
2023-04-30T04:18:38.326Z,82.65
2023-04-30T04:21:06.903Z,82.89
2023-04-30T04:23:35.693Z,83.00
2023-04-30T04:26:03.761Z,82.96
2023-04-30T04:28:32.137Z,82.78
2023-04-30T04:31:00.626Z,82.73
2023-04-30T04:33:29.404Z,82.93
2023-04-30T04:35:58.299Z,82.97
2023-04-30T04:38:26.671Z,82.90
2023-04-30T04:40:56.783Z,83.14
2023-04-30T04:43:25.164Z,82.94
2023-04-30T04:45:53.388Z,83.32
2023-04-30T04:48:21.918Z,83.03
2023-04-30T04:50:49.982Z,82.88
2023-04-30T04:53:18.050Z,83.19
2023-04-30T04:55:46.221Z,82.80
2023-04-30T04:58:14.396Z,82.98
2023-04-30T05:00:42.592Z,82.90
2023-04-30T05:03:11.290Z,82.96
2023-04-30T05:05:39.526Z,82.82
2023-04-30T05:08:07.600Z,82.81
2023-04-30T05:10:35.683Z,83.22
2023-04-30T05:13:04.153Z,83.08
2023-04-30T05:15:32.213Z,83.02
2023-04-30T05:18:00.424Z,83.00
2023-04-30T05:20:28.772Z,82.59
2023-04-30T05:22:56.838Z,82.84
2023-04-30T05:25:24.905Z,82.73
2023-04-30T05:27:53.092Z,82.66
2023-04-30T05:30:21.252Z,82.49
2023-04-30T05:32:52.361Z,82.48
2023-04-30T05:35:20.647Z,82.26
2023-04-30T05:37:49.076Z,82.33
2023-04-30T05:40:17.421Z,82.07
2023-04-30T05:42:45.528Z,82.14
2023-04-30T05:45:16.119Z,82.01
2023-04-30T05:47:44.524Z,81.79
2023-04-30T05:50:13.080Z,81.78
2023-04-30T05:52:41.352Z,81.79
2023-04-30T05:55:11.149Z,81.36
2023-04-30T05:57:39.337Z,81.15
2023-04-30T06:00:08.097Z,81.07
2023-04-30T06:02:42.274Z,81.49
2023-04-30T06:05:10.571Z,81.35
2023-04-30T06:07:38.748Z,81.02
2023-04-30T06:10:07.681Z,81.02
2023-04-30T06:12:36.065Z,81.23
2023-04-30T06:15:04.736Z,80.64
2023-04-30T06:17:33.159Z,80.81
2023-04-30T06:20:06.512Z,80.94
2023-04-30T06:22:34.751Z,80.89
2023-04-30T06:25:03.775Z,80.67
2023-04-30T06:27:32.650Z,80.40
2023-04-30T06:30:01.264Z,80.55
2023-04-30T06:32:29.440Z,80.31
2023-04-30T06:34:57.898Z,79.76
2023-04-30T06:37:26.070Z,79.72
2023-04-30T06:39:54.382Z,79.95
2023-04-30T06:42:22.518Z,79.73
2023-04-30T06:44:50.689Z,79.69
2023-04-30T06:47:18.764Z,79.64
2023-04-30T06:49:47.147Z,79.59
2023-04-30T06:52:15.309Z,79.62
2023-04-30T06:54:44.401Z,79.02
2023-04-30T06:57:12.576Z,79.18
2023-04-30T06:59:40.768Z,79.17
2023-04-30T07:02:08.858Z,79.13
2023-04-30T07:04:36.991Z,78.72
2023-04-30T07:07:05.472Z,77.97
2023-04-30T07:09:33.539Z,78.20
2023-04-30T07:12:01.938Z,78.36
2023-04-30T07:14:29.981Z,77.61
2023-04-30T07:16:58.153Z,77.50
2023-04-30T07:19:27.264Z,77.26
2023-04-30T07:21:55.429Z,76.96
2023-04-30T07:24:23.601Z,76.62
2023-04-30T07:26:51.874Z,76.64
2023-04-30T07:29:20.075Z,76.45
2023-04-30T07:31:48.351Z,76.00
2023-04-30T07:34:16.489Z,75.88
2023-04-30T07:36:44.658Z,76.04
2023-04-30T07:39:12.933Z,75.63
2023-04-30T07:41:41.110Z,75.37
2023-04-30T07:44:09.282Z,75.27
2023-04-30T07:46:37.396Z,74.90
2023-04-30T07:49:05.934Z,74.45
2023-04-30T07:51:34.235Z,73.91
2023-04-30T07:54:02.382Z,74.29
2023-04-30T07:56:30.767Z,74.11
2023-04-30T07:58:59.010Z,74.21
2023-04-30T08:01:27.315Z,74.12
2023-04-30T08:03:55.703Z,73.88
2023-04-30T08:06:24.493Z,73.24
2023-04-30T08:08:52.647Z,73.14
2023-04-30T08:11:20.816Z,72.77
2023-04-30T08:13:48.989Z,72.26
2023-04-30T08:16:17.349Z,72.32
2023-04-30T08:18:46.796Z,71.99
2023-04-30T08:21:15.142Z,71.70
2023-04-30T08:23:43.215Z,71.25
2023-04-30T08:26:11.384Z,71.05
2023-04-30T08:28:39.982Z,70.81
2023-04-30T08:31:08.667Z,70.39
2023-04-30T08:33:36.728Z,70.12
2023-04-30T08:36:05.510Z,70.08
2023-04-30T08:38:33.578Z,69.31
2023-04-30T08:41:16.087Z,68.36
2023-04-30T08:43:45.177Z,68.38
2023-04-30T08:46:17.330Z,67.85
2023-04-30T08:48:46.131Z,67.22
2023-04-30T08:51:14.616Z,67.16
2023-04-30T08:53:43.404Z,67.22
2023-04-30T08:56:11.786Z,66.80
2023-04-30T08:58:41.072Z,65.85
2023-04-30T09:01:10.236Z,66.11
2023-04-30T09:03:38.649Z,66.09
2023-04-30T09:06:06.867Z,65.76
2023-04-30T09:08:49.636Z,65.66
2023-04-30T09:11:29.070Z,65.76
2023-04-30T09:14:01.744Z,65.35
2023-04-30T09:16:45.905Z,63.98
2023-04-30T09:19:24.532Z,63.54
2023-04-30T09:21:52.886Z,63.72
2023-04-30T09:24:21.054Z,64.04
2023-04-30T09:26:49.640Z,64.13
2023-04-30T09:29:17.812Z,64.10
2023-04-30T09:31:47.772Z,63.85
2023-04-30T09:34:16.207Z,63.52
2023-04-30T09:36:57.152Z,63.17
2023-04-30T09:39:25.247Z,62.80
2023-04-30T09:41:53.623Z,62.70
2023-04-30T09:44:32.935Z,61.96
2023-04-30T09:47:01.253Z,61.54
2023-04-30T09:49:29.614Z,60.75
2023-04-30T09:52:01.696Z,60.19
2023-04-30T09:54:31.277Z,59.86
2023-04-30T09:57:02.021Z,59.72
2023-04-30T09:59:33.158Z,59.40
2023-04-30T10:02:02.969Z,58.95
2023-04-30T10:04:35.342Z,58.25
2023-04-30T10:07:12.518Z,57.12
2023-04-30T10:09:58.225Z,56.54
2023-04-30T10:12:30.777Z,57.02
2023-04-30T10:15:23.429Z,56.75
2023-04-30T10:18:05.458Z,56.00
2023-04-30T10:20:37.257Z,55.47
2023-04-30T10:23:05.967Z,55.14
2023-04-30T10:25:34.338Z,54.63
2023-04-30T10:28:04.626Z,54.41
2023-04-30T10:30:35.193Z,54.11
2023-04-30T10:33:16.801Z,53.74
2023-04-30T10:35:50.169Z,53.26
2023-04-30T10:38:29.985Z,52.24
2023-04-30T10:41:02.385Z,52.09
2023-04-30T10:43:31.683Z,51.62
2023-04-30T10:46:00.429Z,51.09
2023-04-30T10:48:31.302Z,50.30
2023-04-30T10:50:59.942Z,49.67
2023-04-30T10:53:31.565Z,49.41
2023-04-30T10:56:09.661Z,49.41
2023-04-30T10:58:39.721Z,48.66
2023-04-30T11:01:15.951Z,48.24
2023-04-30T11:04:11.243Z,47.68
2023-04-30T11:06:56.102Z,46.93
2023-04-30T11:09:39.433Z,46.51
2023-04-30T11:12:22.244Z,46.15
2023-04-30T11:14:50.591Z,45.54
2023-04-30T11:17:23.723Z,45.01
2023-04-30T11:19:53.926Z,44.55
2023-04-30T11:22:26.807Z,44.33
2023-04-30T11:25:03.944Z,44.30
2023-04-30T11:27:36.681Z,44.32
2023-04-30T11:30:10.973Z,43.88
2023-04-30T11:32:40.600Z,43.44
2023-04-30T11:35:09.254Z,42.94
2023-04-30T11:37:44.115Z,42.65
2023-04-30T11:40:14.023Z,42.08
2023-04-30T11:42:47.135Z,41.55
2023-04-30T11:45:21.128Z,40.97
2023-04-30T11:47:55.372Z,40.42
2023-04-30T11:50:29.816Z,39.70
2023-04-30T11:52:59.368Z,39.28
2023-04-30T11:55:28.158Z,39.08
2023-04-30T11:57:59.588Z,38.82
2023-04-30T12:00:29.640Z,38.54
2023-04-30T12:03:00.596Z,38.66
2023-04-30T12:05:29.126Z,38.21
2023-04-30T12:08:00.392Z,38.27
2023-04-30T12:10:28.545Z,37.86
2023-04-30T12:12:56.715Z,37.75
2023-04-30T12:15:29.325Z,37.43
2023-04-30T12:17:58.998Z,37.05
2023-04-30T12:20:29.636Z,37.01
2023-04-30T12:22:58.870Z,36.51
2023-04-30T12:25:30.065Z,36.18
2023-04-30T12:27:59.836Z,36.64
2023-04-30T12:30:28.174Z,36.57
2023-04-30T12:33:00.618Z,36.34
2023-04-30T12:35:31.540Z,36.29
2023-04-30T12:38:05.466Z,36.26
2023-04-30T12:40:33.948Z,35.81
2023-04-30T12:43:04.394Z,35.83
2023-04-30T12:45:53.041Z,35.53
2023-04-30T12:48:24.634Z,35.30
2023-04-30T12:50:52.961Z,35.10
2023-04-30T12:53:22.143Z,34.90
2023-04-30T12:56:15.604Z,34.92
2023-04-30T12:58:47.590Z,34.44
2023-04-30T13:01:24.066Z,34.32
2023-04-30T13:03:53.946Z,33.95
2023-04-30T13:06:23.594Z,34.06
2023-04-30T13:08:58.538Z,33.75
2023-04-30T13:11:27.890Z,33.18
2023-04-30T13:13:56.316Z,33.02
2023-04-30T13:16:25.296Z,32.61
2023-04-30T13:18:55.131Z,32.79
2023-04-30T13:21:25.136Z,32.66
2023-04-30T13:23:54.929Z,32.18
2023-04-30T13:26:24.100Z,31.93
2023-04-30T13:28:52.577Z,31.75
2023-04-30T13:31:20.863Z,31.87
2023-04-30T13:33:49.643Z,31.51
2023-04-30T13:36:17.906Z,31.33
2023-04-30T13:38:46.078Z,31.29
2023-04-30T13:41:14.515Z,31.09
2023-04-30T13:43:43.857Z,30.88
2023-04-30T13:46:12.166Z,30.62
2023-04-30T13:48:40.306Z,30.68
2023-04-30T13:51:08.583Z,30.76
2023-04-30T13:53:37.550Z,30.40
2023-04-30T13:56:07.064Z,30.22
2023-04-30T13:58:35.253Z,30.06
2023-04-30T14:01:03.793Z,29.46
2023-04-30T14:03:32.218Z,29.80
2023-04-30T14:06:00.932Z,29.72
2023-04-30T14:08:30.604Z,29.58
2023-04-30T14:10:58.995Z,29.70
2023-04-30T14:13:27.146Z,29.13
2023-04-30T14:15:56.363Z,28.83
2023-04-30T14:18:24.620Z,29.12
2023-04-30T14:20:52.789Z,28.97
2023-04-30T14:23:20.963Z,28.72
2023-04-30T14:25:49.243Z,28.42
2023-04-30T14:28:17.408Z,28.24
2023-04-30T14:30:45.792Z,27.95
2023-04-30T14:33:14.917Z,28.37
2023-04-30T14:35:43.163Z,28.17
2023-04-30T14:38:11.326Z,27.91
2023-04-30T14:40:39.400Z,27.80
2023-04-30T14:43:07.632Z,27.92
2023-04-30T14:45:35.963Z,27.72
2023-04-30T14:48:05.666Z,27.51
2023-04-30T14:50:34.033Z,27.43
2023-04-30T14:53:03.946Z,27.44
2023-04-30T14:55:32.833Z,27.44
2023-04-30T14:58:01.223Z,27.00
2023-04-30T15:00:29.611Z,27.26
2023-04-30T15:02:58.023Z,26.91
2023-04-30T15:05:26.967Z,26.62
2023-04-30T15:07:55.238Z,26.37
2023-04-30T15:10:23.421Z,27.01
2023-04-30T15:12:51.679Z,26.61
2023-04-30T15:15:21.488Z,26.43
2023-04-30T15:17:49.695Z,26.33
2023-04-30T15:20:18.040Z,26.03
2023-04-30T15:22:46.219Z,25.77
2023-04-30T15:25:14.494Z,25.66
2023-04-30T15:27:42.665Z,25.44
2023-04-30T15:30:11.463Z,25.07
2023-04-30T15:32:40.474Z,25.24
2023-04-30T15:35:09.548Z,25.02
2023-04-30T15:37:37.705Z,25.07
2023-04-30T15:40:07.096Z,24.87
2023-04-30T15:42:35.189Z,24.89
2023-04-30T15:45:04.472Z,24.57
2023-04-30T15:47:32.773Z,24.37
2023-04-30T15:50:01.372Z,24.66
2023-04-30T15:52:29.502Z,24.55
2023-04-30T15:54:57.882Z,24.44
2023-04-30T15:57:26.052Z,24.23
2023-04-30T15:59:55.035Z,24.22
2023-04-30T16:02:23.439Z,24.09
2023-04-30T16:04:51.797Z,24.03
2023-04-30T16:07:19.875Z,24.20
2023-04-30T16:09:49.265Z,24.19
2023-04-30T16:12:17.446Z,24.19
2023-04-30T16:14:45.623Z,24.19
2023-04-30T16:17:13.786Z,24.41
2023-04-30T16:19:42.168Z,25.18
2023-04-30T16:22:10.336Z,26.09
2023-04-30T16:24:38.406Z,26.80
2023-04-30T16:27:07.504Z,27.20
2023-04-30T16:29:35.676Z,27.61
2023-04-30T16:32:03.911Z,28.15
2023-04-30T16:34:32.123Z,28.75
2023-04-30T16:37:00.564Z,29.43
2023-04-30T16:39:28.765Z,29.91
2023-04-30T16:41:56.838Z,30.59
2023-04-30T16:44:25.113Z,30.77
2023-04-30T16:46:53.283Z,31.21
2023-04-30T16:49:22.686Z,31.59
2023-04-30T16:51:51.470Z,31.88
2023-04-30T16:54:19.542Z,32.42
2023-04-30T16:56:47.611Z,32.61
2023-04-30T16:59:15.885Z,32.50
2023-04-30T17:01:44.042Z,33.11
2023-04-30T17:04:12.639Z,33.13
2023-04-30T17:06:40.848Z,33.25
2023-04-30T17:09:08.985Z,33.67
2023-04-30T17:11:37.362Z,33.87
2023-04-30T17:14:05.437Z,34.08
2023-04-30T17:16:33.702Z,34.20
2023-04-30T17:19:01.975Z,34.34
2023-04-30T17:21:30.365Z,34.50
2023-04-30T17:23:58.834Z,34.53
2023-04-30T17:26:27.336Z,34.55
2023-04-30T17:28:55.796Z,35.02
2023-04-30T17:31:24.549Z,35.16
2023-04-30T17:33:52.963Z,35.44
2023-04-30T17:36:21.231Z,35.45
2023-04-30T17:38:49.303Z,35.74
2023-04-30T17:41:18.804Z,35.65
2023-04-30T17:43:46.984Z,36.08
2023-04-30T17:46:15.116Z,36.28
2023-04-30T17:48:43.256Z,36.29
2023-04-30T17:51:11.501Z,36.59
2023-04-30T17:53:40.831Z,37.00
2023-04-30T17:56:09.900Z,37.36
2023-04-30T17:58:39.827Z,38.09
2023-04-30T18:01:08.900Z,38.80
2023-04-30T18:03:37.109Z,39.54
2023-04-30T18:06:05.432Z,39.97
2023-04-30T18:08:33.729Z,40.27
2023-04-30T18:11:04.772Z,40.87
2023-04-30T18:13:33.038Z,41.56
2023-04-30T18:16:01.352Z,42.06
2023-04-30T18:18:29.600Z,42.67
2023-04-30T18:20:57.795Z,43.00
2023-04-30T18:23:26.142Z,43.22
2023-04-30T18:25:54.203Z,43.29
2023-04-30T18:28:22.389Z,43.78
2023-04-30T18:30:50.685Z,44.59
2023-04-30T18:33:19.029Z,45.40
2023-04-30T18:35:50.589Z,46.01
2023-04-30T18:38:18.974Z,46.59
2023-04-30T18:40:47.133Z,47.33
2023-04-30T18:43:16.952Z,48.01
2023-04-30T18:45:45.114Z,48.72
2023-04-30T18:48:15.435Z,49.56
2023-04-30T18:50:43.536Z,49.90
2023-04-30T18:53:12.495Z,49.67
2023-04-30T18:55:41.485Z,50.19
2023-04-30T18:58:09.680Z,50.47
2023-04-30T19:00:37.842Z,50.88
2023-04-30T19:03:06.119Z,51.27
2023-04-30T19:05:36.015Z,51.96
2023-04-30T19:08:04.207Z,52.42
2023-04-30T19:10:34.111Z,52.66
2023-04-30T19:13:02.694Z,53.35
2023-04-30T19:15:30.961Z,53.76
2023-04-30T19:17:59.183Z,54.00
2023-04-30T19:20:27.417Z,54.40
2023-04-30T19:22:55.715Z,54.53
2023-04-30T19:25:23.859Z,54.55
2023-04-30T19:27:52.027Z,55.02
2023-04-30T19:30:20.196Z,54.97
2023-04-30T19:32:48.484Z,55.25
2023-04-30T19:35:16.754Z,55.61
2023-04-30T19:37:45.320Z,56.17
2023-04-30T19:40:14.812Z,56.26
2023-04-30T19:42:42.910Z,56.52
2023-04-30T19:45:11.692Z,56.57
2023-04-30T19:47:39.903Z,57.30
2023-04-30T19:50:08.964Z,57.45
2023-04-30T19:52:37.232Z,57.77
2023-04-30T19:55:06.118Z,58.12
2023-04-30T19:57:36.122Z,57.98
2023-04-30T20:00:04.718Z,58.43
2023-04-30T20:02:35.188Z,58.54
2023-04-30T20:05:06.923Z,58.53
2023-04-30T20:07:35.993Z,58.71
2023-04-30T20:10:04.649Z,58.81
2023-04-30T20:12:32.749Z,59.23
2023-04-30T20:15:01.239Z,59.35
2023-04-30T20:17:29.494Z,59.85
2023-04-30T20:19:58.209Z,60.34
2023-04-30T20:22:27.693Z,60.41
2023-04-30T20:24:56.577Z,60.50
2023-04-30T20:27:25.889Z,60.69
2023-04-30T20:29:54.555Z,61.07
2023-04-30T20:32:22.994Z,61.11
2023-04-30T20:34:52.339Z,61.13
2023-04-30T20:37:20.432Z,61.41
2023-04-30T20:39:48.583Z,61.73
2023-04-30T20:42:17.060Z,62.06
2023-04-30T20:44:45.131Z,62.22
2023-04-30T20:47:14.565Z,62.42
2023-04-30T20:49:43.744Z,62.27
2023-04-30T20:52:15.700Z,62.46
2023-04-30T20:54:44.076Z,62.60
2023-04-30T20:57:12.140Z,62.96
2023-04-30T20:59:40.211Z,63.05
2023-04-30T21:02:09.208Z,63.28
2023-04-30T21:04:37.475Z,63.27
2023-04-30T21:07:05.852Z,63.62
2023-04-30T21:09:35.977Z,63.67
2023-04-30T21:12:05.546Z,63.70
2023-04-30T21:14:34.365Z,64.02
2023-04-30T21:17:02.770Z,64.25
2023-04-30T21:19:31.739Z,64.40
2023-04-30T21:22:00.219Z,64.49
2023-04-30T21:24:31.263Z,64.42
2023-04-30T21:27:00.526Z,64.55
2023-04-30T21:29:28.831Z,64.63
2023-04-30T21:31:57.207Z,64.85
2023-04-30T21:34:25.480Z,64.99
2023-04-30T21:36:53.650Z,65.06
2023-04-30T21:39:21.826Z,65.14
2023-04-30T21:41:50.405Z,65.48
2023-04-30T21:44:19.910Z,65.59
2023-04-30T21:46:48.290Z,65.58
2023-04-30T21:49:17.083Z,65.78
2023-04-30T21:51:45.451Z,65.71
2023-04-30T21:54:13.618Z,65.94
2023-04-30T21:56:41.693Z,66.13
2023-04-30T21:59:09.861Z,66.14
2023-04-30T22:01:38.232Z,66.24
2023-04-30T22:04:06.568Z,66.36
2023-04-30T22:06:35.192Z,66.43
2023-04-30T22:09:04.719Z,66.67
2023-04-30T22:11:33.176Z,66.69
2023-04-30T22:14:01.345Z,66.78
2023-04-30T22:16:29.572Z,67.02
2023-04-30T22:18:59.033Z,67.02
2023-04-30T22:21:27.507Z,67.17
2023-04-30T22:23:55.879Z,67.36
2023-04-30T22:26:25.568Z,67.42
2023-04-30T22:28:53.757Z,67.36
2023-04-30T22:31:22.109Z,67.64
2023-04-30T22:33:50.310Z,67.83
2023-04-30T22:36:18.687Z,67.80
2023-04-30T22:38:46.758Z,68.05
2023-04-30T22:41:15.028Z,67.94
2023-04-30T22:43:46.780Z,68.06
2023-04-30T22:46:15.680Z,68.33
2023-04-30T22:48:44.577Z,68.17
2023-04-30T22:51:12.740Z,68.76
2023-04-30T22:53:40.814Z,68.39
2023-04-30T22:56:09.091Z,68.69
2023-04-30T22:58:37.465Z,68.81
2023-04-30T23:01:05.620Z,69.06
2023-04-30T23:03:34.107Z,69.08
2023-04-30T23:06:02.325Z,69.22
2023-04-30T23:08:30.665Z,69.17
2023-04-30T23:10:58.831Z,69.62
2023-04-30T23:13:27.006Z,69.44
2023-04-30T23:15:58.957Z,69.45
2023-04-30T23:18:27.443Z,69.70
2023-04-30T23:20:59.039Z,69.66
2023-04-30T23:23:28.396Z,69.78
2023-04-30T23:25:56.773Z,70.07
2023-04-30T23:28:25.154Z,70.04
2023-04-30T23:30:54.351Z,70.19
2023-04-30T23:33:22.420Z,70.25
2023-04-30T23:35:53.175Z,70.29
2023-04-30T23:38:21.733Z,70.41
2023-04-30T23:40:50.013Z,70.39
2023-04-30T23:43:18.180Z,70.58
2023-04-30T23:45:46.454Z,70.57
2023-04-30T23:48:15.781Z,70.60
2023-04-30T23:50:43.926Z,70.72
2023-04-30T23:53:12.711Z,70.62
2023-04-30T23:55:41.708Z,71.07
2023-04-30T23:58:09.875Z,70.65
